Weather at New Salem Aerodrome

Public forecast

Using degrees Fahrenheit for public forecast. Weather courtesy of forecast.io.

Closest aviation weather report (METAR) to New Salem Aerodrome

Closest report is Greater Rochester International Airport, 18.0 nm (33.4 km) WNW. Retrieved 2020/12/03 19:54 UTC (15 minutes ago):

KROC 031954Z 24014KT 10SM FEW250 08/M06 A2999 RMK AO2 PK WND 23026/1901 SLP164 T00781061

Closest aviation forecast (TAF) to New Salem Aerodrome

Closest forecast is Greater Rochester International Airport, 18.0 nm (33.4 km) WNW. Retrieved 2020/12/03 18:28 UTC (2 hours ago):

TAF KROC 031726Z 0318/0418 26016G28KT P6SM SCT250 FM032100 23012G19KT P6SM SCT250 FM040000 22011KT P6SM BKN200 FM041000 21011KT P6SM OVC045 FM041400 21012G18KT P6SM OVC035 FM041600 22013G20KT P6SM OVC025